sensor_id;sensor_type;location;lat;lon;timestamp;P1;durP1;ratioP1;P2;durP2;ratioP2
22737;SDS011;11536;50.860;4.286;2023-07-13T00:01:25;3.80;;;1.20;;
22737;SDS011;11536;50.860;4.286;2023-07-13T00:03:51;6.65;;;0.90;;
22737;SDS011;11536;50.860;4.286;2023-07-13T00:06:17;5.57;;;0.88;;
22737;SDS011;11536;50.860;4.286;2023-07-13T00:08:44;3.72;;;0.70;;
22737;SDS011;11536;50.860;4.286;2023-07-13T00:11:10;3.33;;;0.55;;
22737;SDS011;11536;50.860;4.286;2023-07-13T00:13:36;7.15;;;0.90;;
22737;SDS011;11536;50.860;4.286;2023-07-13T00:16:03;7.75;;;0.98;;
22737;SDS011;11536;50.860;4.286;2023-07-13T00:18:28;4.55;;;0.90;;
22737;SDS011;11536;50.860;4.286;2023-07-13T00:20:55;7.97;;;0.95;;
22737;SDS011;11536;50.860;4.286;2023-07-13T00:23:21;4.45;;;0.82;;
22737;SDS011;11536;50.860;4.286;2023-07-13T00:25:46;8.50;;;0.85;;
22737;SDS011;11536;50.860;4.286;2023-07-13T00:28:12;3.70;;;0.95;;
22737;SDS011;11536;50.860;4.286;2023-07-13T00:30:38;5.18;;;0.95;;
22737;SDS011;11536;50.860;4.286;2023-07-13T00:33:03;4.80;;;0.93;;
22737;SDS011;11536;50.860;4.286;2023-07-13T00:35:30;4.50;;;0.88;;
22737;SDS011;11536;50.860;4.286;2023-07-13T00:37:55;3.10;;;0.60;;
22737;SDS011;11536;50.860;4.286;2023-07-13T00:40:21;5.10;;;0.77;;
22737;SDS011;11536;50.860;4.286;2023-07-13T00:42:47;6.07;;;0.80;;
22737;SDS011;11536;50.860;4.286;2023-07-13T00:47:38;3.78;;;0.88;;
22737;SDS011;11536;50.860;4.286;2023-07-13T00:50:06;2.63;;;0.80;;
22737;SDS011;11536;50.860;4.286;2023-07-13T00:52:35;5.15;;;0.82;;
22737;SDS011;11536;50.860;4.286;2023-07-13T00:55:03;6.13;;;1.25;;
22737;SDS011;11536;50.860;4.286;2023-07-13T00:57:29;3.92;;;0.80;;
22737;SDS011;11536;50.860;4.286;2023-07-13T00:59:55;1.40;;;0.52;;
22737;SDS011;11536;50.860;4.286;2023-07-13T01:02:24;4.85;;;0.80;;
22737;SDS011;11536;50.860;4.286;2023-07-13T01:04:51;6.82;;;1.02;;
22737;SDS011;11536;50.860;4.286;2023-07-13T01:07:16;7.30;;;1.33;;
22737;SDS011;11536;50.860;4.286;2023-07-13T01:09:44;4.10;;;0.90;;
22737;SDS011;11536;50.860;4.286;2023-07-13T01:12:10;5.50;;;0.90;;
22737;SDS011;11536;50.860;4.286;2023-07-13T01:14:36;4.65;;;0.80;;
22737;SDS011;11536;50.860;4.286;2023-07-13T01:17:02;4.65;;;0.90;;
22737;SDS011;11536;50.860;4.286;2023-07-13T01:22:25;4.60;;;0.88;;
22737;SDS011;11536;50.860;4.286;2023-07-13T01:24:51;6.38;;;1.15;;
22737;SDS011;11536;50.860;4.286;2023-07-13T01:27:22;4.72;;;0.70;;
22737;SDS011;11536;50.860;4.286;2023-07-13T01:29:50;4.80;;;0.98;;
22737;SDS011;11536;50.860;4.286;2023-07-13T01:32:18;4.38;;;1.10;;
22737;SDS011;11536;50.860;4.286;2023-07-13T01:34:48;3.58;;;0.77;;
22737;SDS011;11536;50.860;4.286;2023-07-13T01:37:13;5.35;;;0.85;;
22737;SDS011;11536;50.860;4.286;2023-07-13T01:39:39;5.40;;;1.10;;
22737;SDS011;11536;50.860;4.286;2023-07-13T01:42:05;3.85;;;1.05;;
22737;SDS011;11536;50.860;4.286;2023-07-13T01:44:31;6.13;;;1.20;;
22737;SDS011;11536;50.860;4.286;2023-07-13T01:46:57;6.22;;;1.00;;
22737;SDS011;11536;50.860;4.286;2023-07-13T01:49:22;7.93;;;1.23;;
22737;SDS011;11536;50.860;4.286;2023-07-13T01:51:48;6.82;;;1.08;;
22737;SDS011;11536;50.860;4.286;2023-07-13T01:54:14;11.32;;;0.93;;
22737;SDS011;11536;50.860;4.286;2023-07-13T01:56:39;5.90;;;1.25;;
22737;SDS011;11536;50.860;4.286;2023-07-13T01:59:06;10.00;;;1.73;;
22737;SDS011;11536;50.860;4.286;2023-07-13T02:01:32;6.05;;;1.25;;
22737;SDS011;11536;50.860;4.286;2023-07-13T02:03:58;4.47;;;1.13;;
22737;SDS011;11536;50.860;4.286;2023-07-13T02:06:23;4.03;;;0.73;;
22737;SDS011;11536;50.860;4.286;2023-07-13T02:08:49;4.63;;;0.98;;
22737;SDS011;11536;50.860;4.286;2023-07-13T02:11:15;5.28;;;1.08;;
22737;SDS011;11536;50.860;4.286;2023-07-13T02:13:40;5.20;;;1.10;;
22737;SDS011;11536;50.860;4.286;2023-07-13T02:16:06;6.57;;;1.00;;
22737;SDS011;11536;50.860;4.286;2023-07-13T02:18:31;5.78;;;1.05;;
22737;SDS011;11536;50.860;4.286;2023-07-13T02:20:57;4.28;;;1.00;;
22737;SDS011;11536;50.860;4.286;2023-07-13T02:23:23;6.18;;;1.00;;
22737;SDS011;11536;50.860;4.286;2023-07-13T02:25:48;3.20;;;0.80;;
22737;SDS011;11536;50.860;4.286;2023-07-13T02:28:14;7.22;;;1.77;;
22737;SDS011;11536;50.860;4.286;2023-07-13T02:30:39;6.30;;;1.08;;
22737;SDS011;11536;50.860;4.286;2023-07-13T02:33:05;7.30;;;1.30;;
22737;SDS011;11536;50.860;4.286;2023-07-13T02:35:31;5.03;;;0.90;;
22737;SDS011;11536;50.860;4.286;2023-07-13T02:37:56;6.35;;;1.40;;
22737;SDS011;11536;50.860;4.286;2023-07-13T02:40:22;8.07;;;1.20;;
22737;SDS011;11536;50.860;4.286;2023-07-13T02:42:48;6.45;;;1.00;;
22737;SDS011;11536;50.860;4.286;2023-07-13T02:45:13;4.78;;;1.08;;
22737;SDS011;11536;50.860;4.286;2023-07-13T02:47:40;6.38;;;1.17;;
22737;SDS011;11536;50.860;4.286;2023-07-13T02:50:06;5.47;;;1.00;;
22737;SDS011;11536;50.860;4.286;2023-07-13T02:52:33;5.57;;;1.10;;
22737;SDS011;11536;50.860;4.286;2023-07-13T02:54:58;8.30;;;1.20;;
22737;SDS011;11536;50.860;4.286;2023-07-13T02:57:24;3.63;;;1.10;;
22737;SDS011;11536;50.860;4.286;2023-07-13T02:59:50;9.18;;;1.77;;
22737;SDS011;11536;50.860;4.286;2023-07-13T03:02:15;4.53;;;0.90;;
22737;SDS011;11536;50.860;4.286;2023-07-13T03:04:41;6.35;;;1.05;;
22737;SDS011;11536;50.860;4.286;2023-07-13T03:07:07;8.32;;;1.20;;
22737;SDS011;11536;50.860;4.286;2023-07-13T03:09:33;5.78;;;1.13;;
22737;SDS011;11536;50.860;4.286;2023-07-13T03:11:59;6.78;;;1.50;;
22737;SDS011;11536;50.860;4.286;2023-07-13T03:14:25;5.32;;;1.13;;
22737;SDS011;11536;50.860;4.286;2023-07-13T03:16:51;8.55;;;1.42;;
22737;SDS011;11536;50.860;4.286;2023-07-13T03:19:17;5.05;;;1.15;;
22737;SDS011;11536;50.860;4.286;2023-07-13T03:21:44;5.55;;;1.20;;
22737;SDS011;11536;50.860;4.286;2023-07-13T03:24:10;7.82;;;1.33;;
22737;SDS011;11536;50.860;4.286;2023-07-13T03:26:35;5.90;;;1.58;;
22737;SDS011;11536;50.860;4.286;2023-07-13T03:29:01;10.18;;;1.80;;
22737;SDS011;11536;50.860;4.286;2023-07-13T03:31:28;7.82;;;1.63;;
22737;SDS011;11536;50.860;4.286;2023-07-13T03:33:56;8.45;;;1.75;;
22737;SDS011;11536;50.860;4.286;2023-07-13T03:36:23;6.43;;;1.38;;
22737;SDS011;11536;50.860;4.286;2023-07-13T03:38:54;6.03;;;1.40;;
22737;SDS011;11536;50.860;4.286;2023-07-13T03:41:22;6.93;;;1.45;;
22737;SDS011;11536;50.860;4.286;2023-07-13T03:43:49;11.13;;;1.58;;
22737;SDS011;11536;50.860;4.286;2023-07-13T03:46:14;6.05;;;1.55;;
22737;SDS011;11536;50.860;4.286;2023-07-13T03:48:41;6.45;;;1.52;;
22737;SDS011;11536;50.860;4.286;2023-07-13T03:51:09;5.65;;;1.33;;
22737;SDS011;11536;50.860;4.286;2023-07-13T03:53:39;6.78;;;1.58;;
22737;SDS011;11536;50.860;4.286;2023-07-13T03:56:06;6.90;;;1.48;;
22737;SDS011;11536;50.860;4.286;2023-07-13T03:58:33;6.47;;;1.25;;
22737;SDS011;11536;50.860;4.286;2023-07-13T04:01:01;6.32;;;1.38;;
22737;SDS011;11536;50.860;4.286;2023-07-13T04:03:28;6.13;;;1.40;;
22737;SDS011;11536;50.860;4.286;2023-07-13T04:05:55;7.13;;;1.60;;
22737;SDS011;11536;50.860;4.286;2023-07-13T04:08:28;8.30;;;1.33;;
22737;SDS011;11536;50.860;4.286;2023-07-13T04:10:55;12.95;;;2.25;;
22737;SDS011;11536;50.860;4.286;2023-07-13T04:13:21;9.70;;;1.88;;
22737;SDS011;11536;50.860;4.286;2023-07-13T04:15:47;9.07;;;1.55;;
22737;SDS011;11536;50.860;4.286;2023-07-13T04:18:13;7.47;;;1.52;;
22737;SDS011;11536;50.860;4.286;2023-07-13T04:20:38;6.28;;;1.25;;
22737;SDS011;11536;50.860;4.286;2023-07-13T04:23:04;10.57;;;1.58;;
22737;SDS011;11536;50.860;4.286;2023-07-13T04:25:30;10.73;;;1.80;;
22737;SDS011;11536;50.860;4.286;2023-07-13T04:27:55;7.95;;;1.52;;
22737;SDS011;11536;50.860;4.286;2023-07-13T04:30:21;8.15;;;1.25;;
22737;SDS011;11536;50.860;4.286;2023-07-13T04:32:47;5.45;;;1.25;;
22737;SDS011;11536;50.860;4.286;2023-07-13T04:35:14;5.93;;;1.38;;
22737;SDS011;11536;50.860;4.286;2023-07-13T04:37:40;7.32;;;1.50;;
22737;SDS011;11536;50.860;4.286;2023-07-13T04:40:06;6.03;;;1.30;;
22737;SDS011;11536;50.860;4.286;2023-07-13T04:42:36;11.00;;;1.73;;
22737;SDS011;11536;50.860;4.286;2023-07-13T04:45:02;8.18;;;1.60;;
22737;SDS011;11536;50.860;4.286;2023-07-13T04:47:29;7.63;;;1.60;;
22737;SDS011;11536;50.860;4.286;2023-07-13T04:49:55;7.90;;;1.50;;
22737;SDS011;11536;50.860;4.286;2023-07-13T04:52:24;11.25;;;1.48;;
22737;SDS011;11536;50.860;4.286;2023-07-13T04:54:49;8.13;;;1.67;;
22737;SDS011;11536;50.860;4.286;2023-07-13T04:57:15;6.50;;;1.20;;
22737;SDS011;11536;50.860;4.286;2023-07-13T04:59:41;9.13;;;1.63;;
22737;SDS011;11536;50.860;4.286;2023-07-13T05:02:07;9.25;;;1.23;;
22737;SDS011;11536;50.860;4.286;2023-07-13T05:04:32;7.57;;;1.63;;
22737;SDS011;11536;50.860;4.286;2023-07-13T05:06:58;6.25;;;1.98;;
22737;SDS011;11536;50.860;4.286;2023-07-13T05:09:24;5.50;;;1.20;;
22737;SDS011;11536;50.860;4.286;2023-07-13T05:11:50;9.02;;;1.30;;
22737;SDS011;11536;50.860;4.286;2023-07-13T05:14:16;6.47;;;1.33;;
22737;SDS011;11536;50.860;4.286;2023-07-13T05:16:41;9.50;;;1.67;;
22737;SDS011;11536;50.860;4.286;2023-07-13T05:19:07;7.13;;;1.08;;
22737;SDS011;11536;50.860;4.286;2023-07-13T05:21:33;7.85;;;1.25;;
22737;SDS011;11536;50.860;4.286;2023-07-13T05:23:59;5.28;;;1.48;;
22737;SDS011;11536;50.860;4.286;2023-07-13T05:26:25;5.55;;;1.23;;
22737;SDS011;11536;50.860;4.286;2023-07-13T05:28:50;7.18;;;1.27;;
22737;SDS011;11536;50.860;4.286;2023-07-13T05:31:16;8.98;;;1.30;;
22737;SDS011;11536;50.860;4.286;2023-07-13T05:33:42;7.53;;;1.48;;
22737;SDS011;11536;50.860;4.286;2023-07-13T05:36:07;6.38;;;1.58;;
22737;SDS011;11536;50.860;4.286;2023-07-13T05:38:33;6.25;;;1.20;;
22737;SDS011;11536;50.860;4.286;2023-07-13T05:40:59;7.57;;;1.30;;
22737;SDS011;11536;50.860;4.286;2023-07-13T05:43:24;5.63;;;1.30;;
22737;SDS011;11536;50.860;4.286;2023-07-13T05:45:53;9.02;;;1.48;;
22737;SDS011;11536;50.860;4.286;2023-07-13T05:48:20;10.10;;;1.77;;
22737;SDS011;11536;50.860;4.286;2023-07-13T05:50:46;8.45;;;1.45;;
22737;SDS011;11536;50.860;4.286;2023-07-13T05:53:12;9.73;;;1.60;;
22737;SDS011;11536;50.860;4.286;2023-07-13T05:55:56;7.95;;;1.40;;
22737;SDS011;11536;50.860;4.286;2023-07-13T05:58:21;6.10;;;1.30;;
22737;SDS011;11536;50.860;4.286;2023-07-13T06:00:48;9.43;;;1.75;;
22737;SDS011;11536;50.860;4.286;2023-07-13T06:03:15;6.00;;;1.00;;
22737;SDS011;11536;50.860;4.286;2023-07-13T06:05:41;9.25;;;1.73;;
22737;SDS011;11536;50.860;4.286;2023-07-13T06:08:07;6.53;;;1.50;;
22737;SDS011;11536;50.860;4.286;2023-07-13T06:10:33;6.50;;;1.30;;
22737;SDS011;11536;50.860;4.286;2023-07-13T06:13:00;9.38;;;1.73;;
22737;SDS011;11536;50.860;4.286;2023-07-13T06:15:26;6.68;;;1.35;;
22737;SDS011;11536;50.860;4.286;2023-07-13T06:17:52;8.45;;;1.60;;
22737;SDS011;11536;50.860;4.286;2023-07-13T06:20:17;11.65;;;1.77;;
22737;SDS011;11536;50.860;4.286;2023-07-13T06:22:43;7.65;;;1.67;;
22737;SDS011;11536;50.860;4.286;2023-07-13T06:25:08;8.98;;;1.50;;
22737;SDS011;11536;50.860;4.286;2023-07-13T06:27:34;7.90;;;1.65;;
22737;SDS011;11536;50.860;4.286;2023-07-13T06:30:00;8.55;;;1.70;;
22737;SDS011;11536;50.860;4.286;2023-07-13T06:32:26;8.48;;;1.70;;
22737;SDS011;11536;50.860;4.286;2023-07-13T06:34:52;7.55;;;2.03;;
22737;SDS011;11536;50.860;4.286;2023-07-13T06:37:17;10.10;;;2.35;;
22737;SDS011;11536;50.860;4.286;2023-07-13T06:39:43;5.88;;;1.67;;
22737;SDS011;11536;50.860;4.286;2023-07-13T06:42:09;9.05;;;2.05;;
22737;SDS011;11536;50.860;4.286;2023-07-13T06:44:35;9.52;;;1.60;;
22737;SDS011;11536;50.860;4.286;2023-07-13T06:47:01;12.27;;;2.25;;
22737;SDS011;11536;50.860;4.286;2023-07-13T06:49:27;8.40;;;1.88;;
22737;SDS011;11536;50.860;4.286;2023-07-13T06:51:53;7.85;;;1.70;;
22737;SDS011;11536;50.860;4.286;2023-07-13T06:54:18;6.60;;;1.55;;
22737;SDS011;11536;50.860;4.286;2023-07-13T06:56:44;8.50;;;1.83;;
22737;SDS011;11536;50.860;4.286;2023-07-13T06:59:09;8.88;;;2.08;;
22737;SDS011;11536;50.860;4.286;2023-07-13T07:01:35;5.75;;;1.60;;
22737;SDS011;11536;50.860;4.286;2023-07-13T07:04:00;9.02;;;1.80;;
22737;SDS011;11536;50.860;4.286;2023-07-13T07:06:26;10.23;;;1.95;;
22737;SDS011;11536;50.860;4.286;2023-07-13T07:08:52;8.93;;;2.25;;
22737;SDS011;11536;50.860;4.286;2023-07-13T07:11:19;7.05;;;1.98;;
22737;SDS011;11536;50.860;4.286;2023-07-13T07:13:50;9.48;;;2.10;;
22737;SDS011;11536;50.860;4.286;2023-07-13T07:16:19;10.10;;;1.65;;
22737;SDS011;11536;50.860;4.286;2023-07-13T07:18:45;7.32;;;1.50;;
22737;SDS011;11536;50.860;4.286;2023-07-13T07:21:12;7.28;;;1.70;;
22737;SDS011;11536;50.860;4.286;2023-07-13T07:23:38;5.32;;;1.50;;
22737;SDS011;11536;50.860;4.286;2023-07-13T07:26:04;6.25;;;1.85;;
22737;SDS011;11536;50.860;4.286;2023-07-13T07:28:30;7.95;;;1.77;;
22737;SDS011;11536;50.860;4.286;2023-07-13T07:30:56;10.02;;;1.85;;
22737;SDS011;11536;50.860;4.286;2023-07-13T07:33:23;5.13;;;1.42;;
22737;SDS011;11536;50.860;4.286;2023-07-13T07:35:49;11.18;;;2.20;;
22737;SDS011;11536;50.860;4.286;2023-07-13T07:38:15;6.57;;;1.77;;
22737;SDS011;11536;50.860;4.286;2023-07-13T07:40:41;6.07;;;1.58;;
22737;SDS011;11536;50.860;4.286;2023-07-13T07:43:07;8.95;;;1.85;;
22737;SDS011;11536;50.860;4.286;2023-07-13T07:45:34;7.65;;;1.73;;
22737;SDS011;11536;50.860;4.286;2023-07-13T07:48:00;7.82;;;1.75;;
22737;SDS011;11536;50.860;4.286;2023-07-13T07:50:26;10.20;;;1.92;;
22737;SDS011;11536;50.860;4.286;2023-07-13T07:52:52;8.95;;;1.77;;
22737;SDS011;11536;50.860;4.286;2023-07-13T07:55:18;9.02;;;1.98;;
22737;SDS011;11536;50.860;4.286;2023-07-13T07:57:44;7.75;;;1.80;;
22737;SDS011;11536;50.860;4.286;2023-07-13T08:00:10;9.02;;;1.63;;
22737;SDS011;11536;50.860;4.286;2023-07-13T08:02:36;6.88;;;1.58;;
22737;SDS011;11536;50.860;4.286;2023-07-13T08:05:02;8.18;;;1.90;;
22737;SDS011;11536;50.860;4.286;2023-07-13T08:07:29;9.40;;;1.77;;
22737;SDS011;11536;50.860;4.286;2023-07-13T08:09:56;7.25;;;1.67;;
22737;SDS011;11536;50.860;4.286;2023-07-13T08:12:21;6.30;;;1.58;;
22737;SDS011;11536;50.860;4.286;2023-07-13T08:14:49;6.90;;;1.60;;
22737;SDS011;11536;50.860;4.286;2023-07-13T08:17:18;5.22;;;1.15;;
22737;SDS011;11536;50.860;4.286;2023-07-13T08:19:47;6.75;;;1.60;;
22737;SDS011;11536;50.860;4.286;2023-07-13T08:22:12;4.13;;;1.40;;
22737;SDS011;11536;50.860;4.286;2023-07-13T08:24:38;6.57;;;1.52;;
22737;SDS011;11536;50.860;4.286;2023-07-13T08:27:03;9.20;;;1.90;;
22737;SDS011;11536;50.860;4.286;2023-07-13T08:29:29;8.80;;;1.90;;
22737;SDS011;11536;50.860;4.286;2023-07-13T08:31:57;6.05;;;1.58;;
22737;SDS011;11536;50.860;4.286;2023-07-13T08:34:23;7.32;;;1.90;;
22737;SDS011;11536;50.860;4.286;2023-07-13T08:36:48;8.77;;;1.73;;
22737;SDS011;11536;50.860;4.286;2023-07-13T08:39:14;9.10;;;2.20;;
22737;SDS011;11536;50.860;4.286;2023-07-13T08:41:39;7.72;;;1.70;;
22737;SDS011;11536;50.860;4.286;2023-07-13T08:44:06;6.30;;;1.63;;
22737;SDS011;11536;50.860;4.286;2023-07-13T08:46:41;8.75;;;2.03;;
22737;SDS011;11536;50.860;4.286;2023-07-13T08:49:16;5.90;;;1.42;;
22737;SDS011;11536;50.860;4.286;2023-07-13T08:51:45;7.18;;;2.00;;
22737;SDS011;11536;50.860;4.286;2023-07-13T08:54:36;5.43;;;1.63;;
22737;SDS011;11536;50.860;4.286;2023-07-13T08:57:15;7.60;;;2.30;;
22737;SDS011;11536;50.860;4.286;2023-07-13T08:59:44;6.03;;;1.40;;
22737;SDS011;11536;50.860;4.286;2023-07-13T09:04:43;5.07;;;1.77;;
22737;SDS011;11536;50.860;4.286;2023-07-13T09:10:14;6.40;;;1.92;;
22737;SDS011;11536;50.860;4.286;2023-07-13T09:15:17;4.20;;;1.60;;
22737;SDS011;11536;50.860;4.286;2023-07-13T09:17:50;6.88;;;1.52;;
22737;SDS011;11536;50.860;4.286;2023-07-13T09:21:20;7.15;;;1.63;;
22737;SDS011;11536;50.860;4.286;2023-07-13T09:23:20;5.15;;;1.30;;
22737;SDS011;11536;50.860;4.286;2023-07-13T09:25:47;5.35;;;1.73;;
22737;SDS011;11536;50.860;4.286;2023-07-13T09:28:27;6.67;;;1.47;;
22737;SDS011;11536;50.860;4.286;2023-07-13T09:33:38;7.40;;;1.48;;
22737;SDS011;11536;50.860;4.286;2023-07-13T09:39:04;6.07;;;1.55;;
22737;SDS011;11536;50.860;4.286;2023-07-13T09:44:38;5.82;;;1.70;;
22737;SDS011;11536;50.860;4.286;2023-07-13T09:47:19;6.88;;;1.55;;
22737;SDS011;11536;50.860;4.286;2023-07-13T09:49:58;7.75;;;1.40;;
22737;SDS011;11536;50.860;4.286;2023-07-13T09:52:39;2.83;;;1.20;;
22737;SDS011;11536;50.860;4.286;2023-07-13T09:55:12;7.75;;;1.55;;
22737;SDS011;11536;50.860;4.286;2023-07-13T10:00:53;7.88;;;1.50;;
22737;SDS011;11536;50.860;4.286;2023-07-13T10:03:28;8.25;;;1.50;;
22737;SDS011;11536;50.860;4.286;2023-07-13T10:06:09;6.30;;;1.50;;
22737;SDS011;11536;50.860;4.286;2023-07-13T10:08:36;6.95;;;1.60;;
22737;SDS011;11536;50.860;4.286;2023-07-13T10:11:12;6.30;;;1.40;;
22737;SDS011;11536;50.860;4.286;2023-07-13T10:13:52;6.55;;;1.58;;
22737;SDS011;11536;50.860;4.286;2023-07-13T10:16:21;4.93;;;1.00;;
22737;SDS011;11536;50.860;4.286;2023-07-13T10:18:49;4.07;;;1.30;;
22737;SDS011;11536;50.860;4.286;2023-07-13T10:21:26;8.93;;;1.63;;
22737;SDS011;11536;50.860;4.286;2023-07-13T10:23:57;4.72;;;1.38;;
22737;SDS011;11536;50.860;4.286;2023-07-13T10:29:22;5.32;;;1.80;;
22737;SDS011;11536;50.860;4.286;2023-07-13T10:31:50;5.85;;;1.42;;
22737;SDS011;11536;50.860;4.286;2023-07-13T10:34:16;4.15;;;1.30;;
22737;SDS011;11536;50.860;4.286;2023-07-13T10:36:43;6.65;;;1.40;;
22737;SDS011;11536;50.860;4.286;2023-07-13T10:39:17;3.70;;;1.60;;
22737;SDS011;11536;50.860;4.286;2023-07-13T10:41:46;3.88;;;1.55;;
22737;SDS011;11536;50.860;4.286;2023-07-13T10:44:17;6.47;;;1.83;;
22737;SDS011;11536;50.860;4.286;2023-07-13T10:46:55;4.80;;;1.60;;
22737;SDS011;11536;50.860;4.286;2023-07-13T10:49:27;8.70;;;2.00;;
22737;SDS011;11536;50.860;4.286;2023-07-13T10:51:55;9.43;;;1.80;;
22737;SDS011;11536;50.860;4.286;2023-07-13T10:54:26;6.50;;;1.90;;
22737;SDS011;11536;50.860;4.286;2023-07-13T10:57:07;6.27;;;1.80;;
22737;SDS011;11536;50.860;4.286;2023-07-13T11:00:21;6.80;;;1.77;;
22737;SDS011;11536;50.860;4.286;2023-07-13T11:02:42;8.35;;;1.70;;
22737;SDS011;11536;50.860;4.286;2023-07-13T11:05:25;6.78;;;1.40;;
22737;SDS011;11536;50.860;4.286;2023-07-13T11:07:55;5.30;;;1.58;;
22737;SDS011;11536;50.860;4.286;2023-07-13T11:16:11;6.40;;;1.30;;
22737;SDS011;11536;50.860;4.286;2023-07-13T11:21:32;3.85;;;1.20;;
22737;SDS011;11536;50.860;4.286;2023-07-13T11:24:14;4.18;;;1.17;;
22737;SDS011;11536;50.860;4.286;2023-07-13T11:26:43;6.40;;;1.45;;
22737;SDS011;11536;50.860;4.286;2023-07-13T11:31:54;5.22;;;1.33;;
22737;SDS011;11536;50.860;4.286;2023-07-13T11:34:33;4.40;;;1.20;;
22737;SDS011;11536;50.860;4.286;2023-07-13T11:37:01;3.83;;;1.30;;
22737;SDS011;11536;50.860;4.286;2023-07-13T11:39:34;3.65;;;1.20;;
22737;SDS011;11536;50.860;4.286;2023-07-13T11:42:03;4.18;;;1.10;;
22737;SDS011;11536;50.860;4.286;2023-07-13T11:44:34;2.55;;;0.93;;
22737;SDS011;11536;50.860;4.286;2023-07-13T11:47:07;6.68;;;1.23;;
22737;SDS011;11536;50.860;4.286;2023-07-13T11:49:43;7.80;;;1.35;;
22737;SDS011;11536;50.860;4.286;2023-07-13T11:52:16;8.95;;;1.55;;
22737;SDS011;11536;50.860;4.286;2023-07-13T11:54:50;5.32;;;1.27;;
22737;SDS011;11536;50.860;4.286;2023-07-13T11:59:58;4.68;;;1.33;;
22737;SDS011;11536;50.860;4.286;2023-07-13T12:02:33;7.20;;;1.60;;
22737;SDS011;11536;50.860;4.286;2023-07-13T12:05:10;3.78;;;1.05;;
22737;SDS011;11536;50.860;4.286;2023-07-13T12:07:42;5.75;;;1.10;;
22737;SDS011;11536;50.860;4.286;2023-07-13T12:12:36;6.45;;;1.40;;
22737;SDS011;11536;50.860;4.286;2023-07-13T12:15:10;5.30;;;0.95;;
22737;SDS011;11536;50.860;4.286;2023-07-13T12:17:37;2.95;;;0.85;;
22737;SDS011;11536;50.860;4.286;2023-07-13T12:20:04;4.07;;;0.88;;
22737;SDS011;11536;50.860;4.286;2023-07-13T12:22:45;2.80;;;0.65;;
22737;SDS011;11536;50.860;4.286;2023-07-13T12:25:12;1.75;;;0.60;;
22737;SDS011;11536;50.860;4.286;2023-07-13T12:27:38;2.25;;;0.80;;
22737;SDS011;11536;50.860;4.286;2023-07-13T12:30:24;2.30;;;0.70;;
22737;SDS011;11536;50.860;4.286;2023-07-13T12:33:05;5.68;;;0.80;;
22737;SDS011;11536;50.860;4.286;2023-07-13T12:35:39;3.10;;;0.65;;
22737;SDS011;11536;50.860;4.286;2023-07-13T12:38:10;3.78;;;0.95;;
22737;SDS011;11536;50.860;4.286;2023-07-13T12:40:36;3.42;;;1.00;;
22737;SDS011;11536;50.860;4.286;2023-07-13T12:43:02;3.55;;;1.00;;
22737;SDS011;11536;50.860;4.286;2023-07-13T12:45:29;3.92;;;1.13;;
22737;SDS011;11536;50.860;4.286;2023-07-13T12:48:03;5.38;;;1.20;;
22737;SDS011;11536;50.860;4.286;2023-07-13T12:50:40;5.15;;;1.45;;
22737;SDS011;11536;50.860;4.286;2023-07-13T12:53:15;4.43;;;1.40;;
22737;SDS011;11536;50.860;4.286;2023-07-13T12:55:47;5.13;;;1.08;;
22737;SDS011;11536;50.860;4.286;2023-07-13T12:58:28;1.67;;;0.80;;
22737;SDS011;11536;50.860;4.286;2023-07-13T13:01:01;2.92;;;1.00;;
22737;SDS011;11536;50.860;4.286;2023-07-13T13:03:34;2.95;;;0.82;;
22737;SDS011;11536;50.860;4.286;2023-07-13T13:06:04;3.45;;;0.98;;
22737;SDS011;11536;50.860;4.286;2023-07-13T13:08:44;2.25;;;0.85;;
22737;SDS011;11536;50.860;4.286;2023-07-13T13:11:11;3.55;;;0.90;;
22737;SDS011;11536;50.860;4.286;2023-07-13T13:13:37;3.30;;;1.13;;
22737;SDS011;11536;50.860;4.286;2023-07-13T13:16:08;2.70;;;0.93;;
22737;SDS011;11536;50.860;4.286;2023-07-13T13:18:37;2.83;;;1.20;;
22737;SDS011;11536;50.860;4.286;2023-07-13T13:21:02;3.47;;;1.20;;
22737;SDS011;11536;50.860;4.286;2023-07-13T13:23:28;4.20;;;1.23;;
22737;SDS011;11536;50.860;4.286;2023-07-13T13:25:53;4.07;;;1.25;;
22737;SDS011;11536;50.860;4.286;2023-07-13T13:28:20;5.03;;;1.00;;
22737;SDS011;11536;50.860;4.286;2023-07-13T13:30:46;4.53;;;1.33;;
22737;SDS011;11536;50.860;4.286;2023-07-13T13:33:16;4.72;;;1.00;;
22737;SDS011;11536;50.860;4.286;2023-07-13T13:35:43;4.35;;;1.27;;
22737;SDS011;11536;50.860;4.286;2023-07-13T13:38:16;3.83;;;1.30;;
22737;SDS011;11536;50.860;4.286;2023-07-13T13:40:44;5.07;;;1.30;;
22737;SDS011;11536;50.860;4.286;2023-07-13T13:43:26;2.97;;;1.00;;
22737;SDS011;11536;50.860;4.286;2023-07-13T13:45:52;4.43;;;1.05;;
22737;SDS011;11536;50.860;4.286;2023-07-13T13:48:31;3.55;;;1.08;;
22737;SDS011;11536;50.860;4.286;2023-07-13T13:50:59;4.55;;;1.25;;
22737;SDS011;11536;50.860;4.286;2023-07-13T13:53:25;4.22;;;1.02;;
22737;SDS011;11536;50.860;4.286;2023-07-13T13:55:51;4.22;;;1.10;;
22737;SDS011;11536;50.860;4.286;2023-07-13T13:58:18;4.70;;;1.20;;
22737;SDS011;11536;50.860;4.286;2023-07-13T14:00:44;5.15;;;1.17;;
22737;SDS011;11536;50.860;4.286;2023-07-13T14:03:17;5.28;;;1.63;;
22737;SDS011;11536;50.860;4.286;2023-07-13T14:05:44;2.72;;;1.00;;
22737;SDS011;11536;50.860;4.286;2023-07-13T14:08:15;2.20;;;1.10;;
22737;SDS011;11536;50.860;4.286;2023-07-13T14:10:43;3.15;;;0.98;;
22737;SDS011;11536;50.860;4.286;2023-07-13T14:13:15;5.00;;;0.98;;
22737;SDS011;11536;50.860;4.286;2023-07-13T14:15:43;4.60;;;1.23;;
22737;SDS011;11536;50.860;4.286;2023-07-13T14:18:10;3.88;;;1.17;;
22737;SDS011;11536;50.860;4.286;2023-07-13T14:20:36;4.20;;;1.13;;
22737;SDS011;11536;50.860;4.286;2023-07-13T14:23:02;3.63;;;0.82;;
22737;SDS011;11536;50.860;4.286;2023-07-13T14:25:28;6.38;;;1.23;;
22737;SDS011;11536;50.860;4.286;2023-07-13T14:27:55;5.45;;;1.10;;
22737;SDS011;11536;50.860;4.286;2023-07-13T14:30:24;5.15;;;1.10;;
22737;SDS011;11536;50.860;4.286;2023-07-13T14:32:50;2.67;;;1.00;;
22737;SDS011;11536;50.860;4.286;2023-07-13T14:35:20;3.90;;;1.40;;
22737;SDS011;11536;50.860;4.286;2023-07-13T14:37:48;3.50;;;1.13;;
22737;SDS011;11536;50.860;4.286;2023-07-13T14:40:15;4.53;;;1.02;;
22737;SDS011;11536;50.860;4.286;2023-07-13T14:42:42;2.83;;;0.98;;
22737;SDS011;11536;50.860;4.286;2023-07-13T14:45:15;4.47;;;1.20;;
22737;SDS011;11536;50.860;4.286;2023-07-13T14:47:41;4.10;;;1.10;;
22737;SDS011;11536;50.860;4.286;2023-07-13T14:50:30;4.85;;;0.93;;
22737;SDS011;11536;50.860;4.286;2023-07-13T14:52:57;1.67;;;0.63;;
22737;SDS011;11536;50.860;4.286;2023-07-13T14:55:22;1.95;;;0.65;;
22737;SDS011;11536;50.860;4.286;2023-07-13T14:57:51;2.95;;;0.82;;
22737;SDS011;11536;50.860;4.286;2023-07-13T15:00:20;4.20;;;0.93;;
22737;SDS011;11536;50.860;4.286;2023-07-13T15:02:48;4.68;;;0.68;;
22737;SDS011;11536;50.860;4.286;2023-07-13T15:05:20;1.77;;;0.70;;
22737;SDS011;11536;50.860;4.286;2023-07-13T15:07:48;2.60;;;0.85;;
22737;SDS011;11536;50.860;4.286;2023-07-13T15:12:44;3.15;;;0.85;;
22737;SDS011;11536;50.860;4.286;2023-07-13T15:15:10;3.75;;;0.93;;
22737;SDS011;11536;50.860;4.286;2023-07-13T15:17:38;4.40;;;0.90;;
22737;SDS011;11536;50.860;4.286;2023-07-13T15:20:19;2.80;;;0.90;;
22737;SDS011;11536;50.860;4.286;2023-07-13T15:22:57;4.28;;;1.10;;
22737;SDS011;11536;50.860;4.286;2023-07-13T15:25:24;3.75;;;0.70;;
22737;SDS011;11536;50.860;4.286;2023-07-13T15:27:52;3.17;;;0.90;;
22737;SDS011;11536;50.860;4.286;2023-07-13T15:30:19;3.53;;;1.10;;
22737;SDS011;11536;50.860;4.286;2023-07-13T15:32:45;4.05;;;1.10;;
22737;SDS011;11536;50.860;4.286;2023-07-13T15:35:16;3.58;;;1.10;;
22737;SDS011;11536;50.860;4.286;2023-07-13T15:37:43;5.47;;;0.80;;
22737;SDS011;11536;50.860;4.286;2023-07-13T15:40:10;3.38;;;1.00;;
22737;SDS011;11536;50.860;4.286;2023-07-13T15:42:37;3.35;;;1.00;;